sensor_id;sensor_type;location;lat;lon;timestamp;P1;durP1;ratioP1;P2;durP2;ratioP2
25073;SDS011;13066;52.042;5.648;2023-12-14T00:02:05;16.05;;;13.80;;
25073;SDS011;13066;52.042;5.648;2023-12-14T00:04:33;16.17;;;13.48;;
25073;SDS011;13066;52.042;5.648;2023-12-14T00:07:01;19.42;;;14.50;;
25073;SDS011;13066;52.042;5.648;2023-12-14T00:09:29;18.55;;;14.93;;
25073;SDS011;13066;52.042;5.648;2023-12-14T00:11:58;15.98;;;14.13;;
25073;SDS011;13066;52.042;5.648;2023-12-14T00:14:26;17.48;;;13.98;;
25073;SDS011;13066;52.042;5.648;2023-12-14T00:16:54;19.13;;;14.68;;
25073;SDS011;13066;52.042;5.648;2023-12-14T00:19:25;17.98;;;14.48;;
25073;SDS011;13066;52.042;5.648;2023-12-14T00:21:53;20.77;;;15.05;;
25073;SDS011;13066;52.042;5.648;2023-12-14T00:24:21;17.83;;;15.20;;
25073;SDS011;13066;52.042;5.648;2023-12-14T00:26:49;18.85;;;14.57;;
25073;SDS011;13066;52.042;5.648;2023-12-14T00:29:19;18.70;;;14.20;;
25073;SDS011;13066;52.042;5.648;2023-12-14T00:31:46;19.30;;;15.13;;
25073;SDS011;13066;52.042;5.648;2023-12-14T00:34:14;19.35;;;14.65;;
25073;SDS011;13066;52.042;5.648;2023-12-14T00:36:42;18.77;;;14.90;;
25073;SDS011;13066;52.042;5.648;2023-12-14T00:39:11;17.92;;;14.63;;
25073;SDS011;13066;52.042;5.648;2023-12-14T00:41:39;17.67;;;14.27;;
25073;SDS011;13066;52.042;5.648;2023-12-14T00:44:07;17.17;;;13.88;;
25073;SDS011;13066;52.042;5.648;2023-12-14T00:46:37;16.00;;;13.48;;
25073;SDS011;13066;52.042;5.648;2023-12-14T00:49:05;16.92;;;13.15;;
25073;SDS011;13066;52.042;5.648;2023-12-14T00:51:33;15.20;;;13.60;;
25073;SDS011;13066;52.042;5.648;2023-12-14T00:54:01;15.27;;;12.93;;
25073;SDS011;13066;52.042;5.648;2023-12-14T00:56:29;15.93;;;13.38;;
25073;SDS011;13066;52.042;5.648;2023-12-14T00:58:57;15.70;;;13.60;;
25073;SDS011;13066;52.042;5.648;2023-12-14T01:01:25;14.13;;;12.63;;
25073;SDS011;13066;52.042;5.648;2023-12-14T01:03:54;14.57;;;12.95;;
25073;SDS011;13066;52.042;5.648;2023-12-14T01:06:22;16.00;;;13.63;;
25073;SDS011;13066;52.042;5.648;2023-12-14T01:08:50;15.43;;;13.52;;
25073;SDS011;13066;52.042;5.648;2023-12-14T01:11:19;15.48;;;13.85;;
25073;SDS011;13066;52.042;5.648;2023-12-14T01:13:47;16.27;;;14.57;;
25073;SDS011;13066;52.042;5.648;2023-12-14T01:16:15;17.27;;;15.40;;
25073;SDS011;13066;52.042;5.648;2023-12-14T01:18:43;17.17;;;15.20;;
25073;SDS011;13066;52.042;5.648;2023-12-14T01:21:13;19.83;;;15.13;;
25073;SDS011;13066;52.042;5.648;2023-12-14T01:23:41;17.65;;;14.95;;
25073;SDS011;13066;52.042;5.648;2023-12-14T01:26:10;17.08;;;14.40;;
25073;SDS011;13066;52.042;5.648;2023-12-14T01:28:38;15.60;;;13.90;;
25073;SDS011;13066;52.042;5.648;2023-12-14T01:31:06;15.10;;;13.48;;
25073;SDS011;13066;52.042;5.648;2023-12-14T01:33:34;16.98;;;13.93;;
25073;SDS011;13066;52.042;5.648;2023-12-14T01:36:02;15.43;;;13.02;;
25073;SDS011;13066;52.042;5.648;2023-12-14T01:38:32;14.13;;;12.65;;
25073;SDS011;13066;52.042;5.648;2023-12-14T01:41:00;14.60;;;13.10;;
25073;SDS011;13066;52.042;5.648;2023-12-14T01:43:28;14.85;;;13.23;;
25073;SDS011;13066;52.042;5.648;2023-12-14T01:45:56;14.77;;;13.13;;
25073;SDS011;13066;52.042;5.648;2023-12-14T01:48:24;14.48;;;12.98;;
25073;SDS011;13066;52.042;5.648;2023-12-14T01:50:52;14.55;;;12.55;;
25073;SDS011;13066;52.042;5.648;2023-12-14T01:53:20;14.90;;;13.07;;
25073;SDS011;13066;52.042;5.648;2023-12-14T01:55:50;13.45;;;12.15;;
25073;SDS011;13066;52.042;5.648;2023-12-14T01:58:18;13.63;;;12.18;;
25073;SDS011;13066;52.042;5.648;2023-12-14T02:00:49;14.02;;;12.55;;
25073;SDS011;13066;52.042;5.648;2023-12-14T02:03:21;14.27;;;12.77;;
25073;SDS011;13066;52.042;5.648;2023-12-14T02:05:49;14.93;;;13.32;;
25073;SDS011;13066;52.042;5.648;2023-12-14T02:08:17;12.93;;;11.60;;
25073;SDS011;13066;52.042;5.648;2023-12-14T02:10:45;13.75;;;11.45;;
25073;SDS011;13066;52.042;5.648;2023-12-14T02:13:16;14.55;;;11.60;;
25073;SDS011;13066;52.042;5.648;2023-12-14T02:15:44;13.38;;;11.98;;
25073;SDS011;13066;52.042;5.648;2023-12-14T02:18:12;12.30;;;11.00;;
25073;SDS011;13066;52.042;5.648;2023-12-14T02:20:40;12.77;;;11.32;;
25073;SDS011;13066;52.042;5.648;2023-12-14T02:23:09;13.27;;;11.88;;
25073;SDS011;13066;52.042;5.648;2023-12-14T02:25:37;12.18;;;10.93;;
25073;SDS011;13066;52.042;5.648;2023-12-14T02:28:05;13.88;;;12.13;;
25073;SDS011;13066;52.042;5.648;2023-12-14T02:30:39;12.80;;;11.50;;
25073;SDS011;13066;52.042;5.648;2023-12-14T02:33:07;13.13;;;11.85;;
25073;SDS011;13066;52.042;5.648;2023-12-14T02:35:35;13.75;;;12.35;;
25073;SDS011;13066;52.042;5.648;2023-12-14T02:38:03;13.88;;;12.38;;
25073;SDS011;13066;52.042;5.648;2023-12-14T02:40:33;15.13;;;13.60;;
25073;SDS011;13066;52.042;5.648;2023-12-14T02:43:01;14.07;;;12.48;;
25073;SDS011;13066;52.042;5.648;2023-12-14T02:45:29;17.15;;;13.50;;
25073;SDS011;13066;52.042;5.648;2023-12-14T02:47:57;15.70;;;13.77;;
25073;SDS011;13066;52.042;5.648;2023-12-14T02:50:25;15.52;;;13.35;;
25073;SDS011;13066;52.042;5.648;2023-12-14T02:52:52;14.88;;;13.27;;
25073;SDS011;13066;52.042;5.648;2023-12-14T02:55:20;14.85;;;13.15;;
25073;SDS011;13066;52.042;5.648;2023-12-14T02:57:50;13.77;;;12.38;;
25073;SDS011;13066;52.042;5.648;2023-12-14T03:00:18;14.65;;;13.07;;
25073;SDS011;13066;52.042;5.648;2023-12-14T03:02:46;13.55;;;12.15;;
25073;SDS011;13066;52.042;5.648;2023-12-14T03:05:14;13.82;;;12.43;;
25073;SDS011;13066;52.042;5.648;2023-12-14T03:07:43;13.93;;;12.45;;
25073;SDS011;13066;52.042;5.648;2023-12-14T03:10:11;14.63;;;13.13;;
25073;SDS011;13066;52.042;5.648;2023-12-14T03:12:39;13.63;;;12.25;;
25073;SDS011;13066;52.042;5.648;2023-12-14T03:15:08;15.52;;;13.93;;
25073;SDS011;13066;52.042;5.648;2023-12-14T03:17:37;14.48;;;12.98;;
25073;SDS011;13066;52.042;5.648;2023-12-14T03:20:05;13.70;;;12.27;;
25073;SDS011;13066;52.042;5.648;2023-12-14T03:22:34;15.10;;;13.60;;
25073;SDS011;13066;52.042;5.648;2023-12-14T03:25:03;15.10;;;13.50;;
25073;SDS011;13066;52.042;5.648;2023-12-14T03:27:32;14.32;;;12.93;;
25073;SDS011;13066;52.042;5.648;2023-12-14T03:30:00;14.88;;;13.32;;
25073;SDS011;13066;52.042;5.648;2023-12-14T03:32:31;15.25;;;13.63;;
25073;SDS011;13066;52.042;5.648;2023-12-14T03:34:59;14.63;;;13.23;;
25073;SDS011;13066;52.042;5.648;2023-12-14T03:37:27;15.65;;;14.05;;
25073;SDS011;13066;52.042;5.648;2023-12-14T03:39:55;14.50;;;12.98;;
25073;SDS011;13066;52.042;5.648;2023-12-14T03:42:23;13.57;;;12.18;;
25073;SDS011;13066;52.042;5.648;2023-12-14T03:44:51;14.65;;;13.15;;
25073;SDS011;13066;52.042;5.648;2023-12-14T03:47:19;15.50;;;13.45;;
25073;SDS011;13066;52.042;5.648;2023-12-14T03:49:49;14.63;;;13.13;;
25073;SDS011;13066;52.042;5.648;2023-12-14T03:52:17;15.45;;;13.60;;
25073;SDS011;13066;52.042;5.648;2023-12-14T03:54:45;13.93;;;12.52;;
25073;SDS011;13066;52.042;5.648;2023-12-14T03:57:13;14.02;;;12.68;;
25073;SDS011;13066;52.042;5.648;2023-12-14T03:59:41;14.30;;;12.80;;
25073;SDS011;13066;52.042;5.648;2023-12-14T04:02:09;13.70;;;12.30;;
25073;SDS011;13066;52.042;5.648;2023-12-14T04:04:37;12.52;;;11.27;;
25073;SDS011;13066;52.042;5.648;2023-12-14T04:07:06;12.63;;;11.32;;
25073;SDS011;13066;52.042;5.648;2023-12-14T04:09:34;12.93;;;11.52;;
25073;SDS011;13066;52.042;5.648;2023-12-14T04:12:03;13.80;;;12.40;;
25073;SDS011;13066;52.042;5.648;2023-12-14T04:14:31;13.50;;;12.10;;
25073;SDS011;13066;52.042;5.648;2023-12-14T04:16:59;13.32;;;12.02;;
25073;SDS011;13066;52.042;5.648;2023-12-14T04:19:27;13.02;;;11.73;;
25073;SDS011;13066;52.042;5.648;2023-12-14T04:21:55;13.27;;;11.98;;
25073;SDS011;13066;52.042;5.648;2023-12-14T04:24:24;13.35;;;11.98;;
25073;SDS011;13066;52.042;5.648;2023-12-14T04:26:52;13.60;;;11.85;;
25073;SDS011;13066;52.042;5.648;2023-12-14T04:29:20;13.23;;;11.90;;
25073;SDS011;13066;52.042;5.648;2023-12-14T04:31:48;12.63;;;11.32;;
25073;SDS011;13066;52.042;5.648;2023-12-14T04:34:16;13.32;;;11.63;;
25073;SDS011;13066;52.042;5.648;2023-12-14T04:36:45;12.68;;;11.38;;
25073;SDS011;13066;52.042;5.648;2023-12-14T04:39:14;11.65;;;10.45;;
25073;SDS011;13066;52.042;5.648;2023-12-14T04:41:44;12.35;;;11.05;;
25073;SDS011;13066;52.042;5.648;2023-12-14T04:44:12;13.38;;;11.98;;
25073;SDS011;13066;52.042;5.648;2023-12-14T04:46:40;12.80;;;10.75;;
25073;SDS011;13066;52.042;5.648;2023-12-14T04:49:09;11.30;;;10.18;;
25073;SDS011;13066;52.042;5.648;2023-12-14T04:51:37;11.57;;;10.23;;
25073;SDS011;13066;52.042;5.648;2023-12-14T04:54:05;12.48;;;10.85;;
25073;SDS011;13066;52.042;5.648;2023-12-14T04:56:33;12.77;;;11.45;;
25073;SDS011;13066;52.042;5.648;2023-12-14T04:59:02;11.90;;;10.70;;
25073;SDS011;13066;52.042;5.648;2023-12-14T05:01:30;12.00;;;10.82;;
25073;SDS011;13066;52.042;5.648;2023-12-14T05:04:00;11.27;;;9.38;;
25073;SDS011;13066;52.042;5.648;2023-12-14T05:06:29;12.68;;;11.00;;
25073;SDS011;13066;52.042;5.648;2023-12-14T05:08:59;12.10;;;10.45;;
25073;SDS011;13066;52.042;5.648;2023-12-14T05:11:30;12.48;;;10.82;;
25073;SDS011;13066;52.042;5.648;2023-12-14T05:13:58;11.65;;;10.45;;
25073;SDS011;13066;52.042;5.648;2023-12-14T05:16:28;12.07;;;10.23;;
25073;SDS011;13066;52.042;5.648;2023-12-14T05:18:57;12.05;;;10.43;;
25073;SDS011;13066;52.042;5.648;2023-12-14T05:21:26;11.15;;;10.02;;
25073;SDS011;13066;52.042;5.648;2023-12-14T05:23:54;11.93;;;10.07;;
25073;SDS011;13066;52.042;5.648;2023-12-14T05:26:22;10.55;;;9.48;;
25073;SDS011;13066;52.042;5.648;2023-12-14T05:28:50;10.43;;;9.43;;
25073;SDS011;13066;52.042;5.648;2023-12-14T05:31:18;10.95;;;9.85;;
25073;SDS011;13066;52.042;5.648;2023-12-14T05:33:48;12.70;;;10.35;;
25073;SDS011;13066;52.042;5.648;2023-12-14T05:36:16;11.50;;;10.13;;
25073;SDS011;13066;52.042;5.648;2023-12-14T05:38:44;12.90;;;10.60;;
25073;SDS011;13066;52.042;5.648;2023-12-14T05:41:12;12.48;;;10.45;;
25073;SDS011;13066;52.042;5.648;2023-12-14T05:43:40;11.07;;;9.95;;
25073;SDS011;13066;52.042;5.648;2023-12-14T05:46:08;11.07;;;9.98;;
25073;SDS011;13066;52.042;5.648;2023-12-14T05:48:37;11.27;;;10.07;;
25073;SDS011;13066;52.042;5.648;2023-12-14T05:51:06;11.02;;;9.85;;
25073;SDS011;13066;52.042;5.648;2023-12-14T05:53:34;13.52;;;11.00;;
25073;SDS011;13066;52.042;5.648;2023-12-14T05:56:06;12.88;;;10.80;;
25073;SDS011;13066;52.042;5.648;2023-12-14T05:58:35;11.77;;;10.23;;
25073;SDS011;13066;52.042;5.648;2023-12-14T06:01:03;12.98;;;10.50;;
25073;SDS011;13066;52.042;5.648;2023-12-14T06:03:31;11.70;;;10.50;;
25073;SDS011;13066;52.042;5.648;2023-12-14T06:05:59;10.80;;;9.55;;
25073;SDS011;13066;52.042;5.648;2023-12-14T06:08:28;10.82;;;9.70;;
25073;SDS011;13066;52.042;5.648;2023-12-14T06:10:56;11.48;;;9.52;;
25073;SDS011;13066;52.042;5.648;2023-12-14T06:13:24;12.55;;;10.20;;
25073;SDS011;13066;52.042;5.648;2023-12-14T06:15:53;11.50;;;10.05;;
25073;SDS011;13066;52.042;5.648;2023-12-14T06:18:21;12.55;;;10.02;;
25073;SDS011;13066;52.042;5.648;2023-12-14T06:20:49;13.30;;;9.93;;
25073;SDS011;13066;52.042;5.648;2023-12-14T06:23:17;10.82;;;9.73;;
25073;SDS011;13066;52.042;5.648;2023-12-14T06:25:47;10.40;;;9.30;;
25073;SDS011;13066;52.042;5.648;2023-12-14T06:28:15;11.38;;;9.48;;
25073;SDS011;13066;52.042;5.648;2023-12-14T06:30:43;12.23;;;10.38;;
25073;SDS011;13066;52.042;5.648;2023-12-14T06:33:11;10.70;;;9.60;;
25073;SDS011;13066;52.042;5.648;2023-12-14T06:35:39;11.23;;;9.15;;
25073;SDS011;13066;52.042;5.648;2023-12-14T06:38:08;11.00;;;9.50;;
25073;SDS011;13066;52.042;5.648;2023-12-14T06:40:36;10.43;;;9.10;;
25073;SDS011;13066;52.042;5.648;2023-12-14T06:43:05;10.40;;;9.10;;
25073;SDS011;13066;52.042;5.648;2023-12-14T06:45:36;9.88;;;8.88;;
25073;SDS011;13066;52.042;5.648;2023-12-14T06:48:04;11.23;;;9.15;;
25073;SDS011;13066;52.042;5.648;2023-12-14T06:50:33;11.07;;;9.48;;
25073;SDS011;13066;52.042;5.648;2023-12-14T06:53:01;10.52;;;9.05;;
25073;SDS011;13066;52.042;5.648;2023-12-14T06:55:30;10.18;;;8.75;;
25073;SDS011;13066;52.042;5.648;2023-12-14T06:57:57;12.63;;;9.50;;
25073;SDS011;13066;52.042;5.648;2023-12-14T07:00:27;9.77;;;8.77;;
25073;SDS011;13066;52.042;5.648;2023-12-14T07:02:56;10.35;;;9.05;;
25073;SDS011;13066;52.042;5.648;2023-12-14T07:05:24;10.80;;;9.55;;
25073;SDS011;13066;52.042;5.648;2023-12-14T07:07:52;11.25;;;9.30;;
25073;SDS011;13066;52.042;5.648;2023-12-14T07:10:20;10.70;;;9.27;;
25073;SDS011;13066;52.042;5.648;2023-12-14T07:12:48;11.20;;;9.13;;
25073;SDS011;13066;52.042;5.648;2023-12-14T07:15:17;10.75;;;9.18;;
25073;SDS011;13066;52.042;5.648;2023-12-14T07:17:46;9.85;;;8.85;;
25073;SDS011;13066;52.042;5.648;2023-12-14T07:20:14;9.65;;;8.60;;
25073;SDS011;13066;52.042;5.648;2023-12-14T07:22:42;9.43;;;8.52;;
25073;SDS011;13066;52.042;5.648;2023-12-14T07:25:10;10.43;;;8.98;;
25073;SDS011;13066;52.042;5.648;2023-12-14T07:27:38;9.88;;;8.88;;
25073;SDS011;13066;52.042;5.648;2023-12-14T07:30:07;9.90;;;8.90;;
25073;SDS011;13066;52.042;5.648;2023-12-14T07:32:36;10.00;;;8.73;;
25073;SDS011;13066;52.042;5.648;2023-12-14T07:35:06;10.13;;;8.48;;
25073;SDS011;13066;52.042;5.648;2023-12-14T07:37:35;11.02;;;8.90;;
25073;SDS011;13066;52.042;5.648;2023-12-14T07:40:03;10.57;;;9.38;;
25073;SDS011;13066;52.042;5.648;2023-12-14T07:42:32;11.95;;;9.25;;
25073;SDS011;13066;52.042;5.648;2023-12-14T07:45:00;12.52;;;9.63;;
25073;SDS011;13066;52.042;5.648;2023-12-14T07:47:29;10.80;;;8.85;;
25073;SDS011;13066;52.042;5.648;2023-12-14T07:49:58;10.30;;;9.18;;
25073;SDS011;13066;52.042;5.648;2023-12-14T07:52:27;10.48;;;8.98;;
25073;SDS011;13066;52.042;5.648;2023-12-14T07:54:55;11.48;;;8.65;;
25073;SDS011;13066;52.042;5.648;2023-12-14T07:57:23;9.75;;;8.75;;
25073;SDS011;13066;52.042;5.648;2023-12-14T07:59:51;8.55;;;7.72;;
25073;SDS011;13066;52.042;5.648;2023-12-14T08:02:19;8.60;;;7.75;;
25073;SDS011;13066;52.042;5.648;2023-12-14T08:04:47;9.20;;;8.30;;
25073;SDS011;13066;52.042;5.648;2023-12-14T08:07:15;8.82;;;7.93;;
25073;SDS011;13066;52.042;5.648;2023-12-14T08:09:44;10.18;;;8.13;;
25073;SDS011;13066;52.042;5.648;2023-12-14T08:12:12;9.10;;;8.20;;
25073;SDS011;13066;52.042;5.648;2023-12-14T08:14:40;10.75;;;7.88;;
25073;SDS011;13066;52.042;5.648;2023-12-14T08:17:10;9.32;;;8.05;;
25073;SDS011;13066;52.042;5.648;2023-12-14T08:19:38;9.48;;;8.50;;
25073;SDS011;13066;52.042;5.648;2023-12-14T08:22:06;9.15;;;8.25;;
25073;SDS011;13066;52.042;5.648;2023-12-14T08:24:37;9.43;;;8.38;;
25073;SDS011;13066;52.042;5.648;2023-12-14T08:27:07;9.52;;;8.52;;
25073;SDS011;13066;52.042;5.648;2023-12-14T08:29:35;9.65;;;8.52;;
25073;SDS011;13066;52.042;5.648;2023-12-14T08:32:03;9.73;;;8.73;;
25073;SDS011;13066;52.042;5.648;2023-12-14T08:34:32;9.90;;;8.77;;
25073;SDS011;13066;52.042;5.648;2023-12-14T08:37:00;9.60;;;8.40;;
25073;SDS011;13066;52.042;5.648;2023-12-14T08:39:29;9.05;;;8.18;;
25073;SDS011;13066;52.042;5.648;2023-12-14T08:41:57;9.48;;;8.48;;
25073;SDS011;13066;52.042;5.648;2023-12-14T08:44:26;9.45;;;7.97;;
25073;SDS011;13066;52.042;5.648;2023-12-14T08:46:54;8.90;;;7.97;;
25073;SDS011;13066;52.042;5.648;2023-12-14T08:49:22;9.43;;;8.43;;
25073;SDS011;13066;52.042;5.648;2023-12-14T08:51:50;10.25;;;8.60;;
25073;SDS011;13066;52.042;5.648;2023-12-14T08:54:19;10.63;;;8.48;;
25073;SDS011;13066;52.042;5.648;2023-12-14T08:56:46;9.98;;;8.75;;
25073;SDS011;13066;52.042;5.648;2023-12-14T08:59:15;9.38;;;8.32;;
25073;SDS011;13066;52.042;5.648;2023-12-14T09:01:44;9.75;;;8.52;;
25073;SDS011;13066;52.042;5.648;2023-12-14T09:04:13;8.95;;;8.05;;
25073;SDS011;13066;52.042;5.648;2023-12-14T09:06:41;9.07;;;8.18;;
25073;SDS011;13066;52.042;5.648;2023-12-14T09:09:11;9.05;;;8.15;;
25073;SDS011;13066;52.042;5.648;2023-12-14T09:11:39;9.45;;;8.40;;
25073;SDS011;13066;52.042;5.648;2023-12-14T09:14:07;9.85;;;8.57;;
25073;SDS011;13066;52.042;5.648;2023-12-14T09:16:35;10.32;;;8.68;;
25073;SDS011;13066;52.042;5.648;2023-12-14T09:19:05;9.85;;;8.85;;
25073;SDS011;13066;52.042;5.648;2023-12-14T09:21:33;10.15;;;9.15;;
25073;SDS011;13066;52.042;5.648;2023-12-14T09:24:11;13.65;;;11.23;;
25073;SDS011;13066;52.042;5.648;2023-12-14T09:26:40;12.20;;;10.57;;
25073;SDS011;13066;52.042;5.648;2023-12-14T09:29:08;11.88;;;10.57;;
25073;SDS011;13066;52.042;5.648;2023-12-14T09:31:36;14.32;;;11.40;;
25073;SDS011;13066;52.042;5.648;2023-12-14T09:34:06;15.20;;;11.80;;
25073;SDS011;13066;52.042;5.648;2023-12-14T09:36:34;15.40;;;11.02;;
25073;SDS011;13066;52.042;5.648;2023-12-14T09:39:02;14.15;;;10.80;;
25073;SDS011;13066;52.042;5.648;2023-12-14T09:41:31;13.90;;;10.85;;
25073;SDS011;13066;52.042;5.648;2023-12-14T09:43:59;12.60;;;9.45;;
25073;SDS011;13066;52.042;5.648;2023-12-14T09:46:29;12.43;;;9.52;;
25073;SDS011;13066;52.042;5.648;2023-12-14T09:48:58;10.35;;;8.48;;
25073;SDS011;13066;52.042;5.648;2023-12-14T09:51:31;9.30;;;8.38;;
25073;SDS011;13066;52.042;5.648;2023-12-14T09:53:59;9.88;;;8.88;;
25073;SDS011;13066;52.042;5.648;2023-12-14T09:56:27;9.35;;;8.38;;
25073;SDS011;13066;52.042;5.648;2023-12-14T09:58:55;9.90;;;8.65;;
25073;SDS011;13066;52.042;5.648;2023-12-14T10:01:24;9.35;;;8.35;;
25073;SDS011;13066;52.042;5.648;2023-12-14T10:04:06;9.77;;;8.77;;
25073;SDS011;13066;52.042;5.648;2023-12-14T10:06:37;8.93;;;7.93;;
25073;SDS011;13066;52.042;5.648;2023-12-14T10:09:06;10.35;;;8.13;;
25073;SDS011;13066;52.042;5.648;2023-12-14T10:11:36;11.00;;;8.98;;
25073;SDS011;13066;52.042;5.648;2023-12-14T10:14:06;12.20;;;10.18;;
25073;SDS011;13066;52.042;5.648;2023-12-14T10:16:45;15.95;;;12.13;;
25073;SDS011;13066;52.042;5.648;2023-12-14T10:19:14;14.07;;;11.48;;
25073;SDS011;13066;52.042;5.648;2023-12-14T10:21:46;12.98;;;10.20;;
25073;SDS011;13066;52.042;5.648;2023-12-14T10:24:14;11.95;;;10.35;;
25073;SDS011;13066;52.042;5.648;2023-12-14T10:26:46;12.05;;;10.32;;
25073;SDS011;13066;52.042;5.648;2023-12-14T10:29:14;12.32;;;10.15;;
25073;SDS011;13066;52.042;5.648;2023-12-14T10:31:42;11.02;;;9.38;;
25073;SDS011;13066;52.042;5.648;2023-12-14T10:34:11;11.45;;;10.23;;
25073;SDS011;13066;52.042;5.648;2023-12-14T10:36:40;10.18;;;9.07;;
25073;SDS011;13066;52.042;5.648;2023-12-14T10:39:12;12.00;;;10.40;;
25073;SDS011;13066;52.042;5.648;2023-12-14T10:41:42;11.30;;;10.10;;
25073;SDS011;13066;52.042;5.648;2023-12-14T10:44:11;11.70;;;10.32;;
25073;SDS011;13066;52.042;5.648;2023-12-14T10:46:59;11.73;;;9.77;;
25073;SDS011;13066;52.042;5.648;2023-12-14T10:49:27;10.45;;;8.77;;
25073;SDS011;13066;52.042;5.648;2023-12-14T10:51:57;11.07;;;9.15;;
25073;SDS011;13066;52.042;5.648;2023-12-14T10:54:28;9.88;;;8.88;;
25073;SDS011;13066;52.042;5.648;2023-12-14T10:56:56;11.40;;;8.57;;
25073;SDS011;13066;52.042;5.648;2023-12-14T10:59:24;10.25;;;8.77;;
25073;SDS011;13066;52.042;5.648;2023-12-14T11:01:52;10.80;;;8.93;;
25073;SDS011;13066;52.042;5.648;2023-12-14T11:04:21;11.25;;;9.23;;
25073;SDS011;13066;52.042;5.648;2023-12-14T11:06:49;11.07;;;9.27;;
25073;SDS011;13066;52.042;5.648;2023-12-14T11:09:18;11.55;;;8.50;;
25073;SDS011;13066;52.042;5.648;2023-12-14T11:11:55;11.02;;;8.80;;
25073;SDS011;13066;52.042;5.648;2023-12-14T11:14:27;10.40;;;8.82;;
25073;SDS011;13066;52.042;5.648;2023-12-14T11:16:55;10.20;;;8.88;;
25073;SDS011;13066;52.042;5.648;2023-12-14T11:19:25;10.65;;;8.77;;
25073;SDS011;13066;52.042;5.648;2023-12-14T11:24:51;9.10;;;8.20;;
25073;SDS011;13066;52.042;5.648;2023-12-14T11:27:26;9.80;;;7.93;;
25073;SDS011;13066;52.042;5.648;2023-12-14T11:29:55;9.35;;;8.32;;
25073;SDS011;13066;52.042;5.648;2023-12-14T11:32:24;9.52;;;7.93;;
25073;SDS011;13066;52.042;5.648;2023-12-14T11:34:52;9.70;;;8.45;;
25073;SDS011;13066;52.042;5.648;2023-12-14T11:37:20;9.45;;;7.53;;
25073;SDS011;13066;52.042;5.648;2023-12-14T11:39:49;9.65;;;7.82;;
25073;SDS011;13066;52.042;5.648;2023-12-14T11:42:18;9.35;;;8.20;;
25073;SDS011;13066;52.042;5.648;2023-12-14T11:44:47;8.93;;;7.80;;
25073;SDS011;13066;52.042;5.648;2023-12-14T11:47:15;7.63;;;6.93;;
25073;SDS011;13066;52.042;5.648;2023-12-14T11:49:44;8.77;;;7.18;;
25073;SDS011;13066;52.042;5.648;2023-12-14T11:52:12;7.93;;;7.13;;
25073;SDS011;13066;52.042;5.648;2023-12-14T11:54:39;7.55;;;6.75;;
25073;SDS011;13066;52.042;5.648;2023-12-14T11:57:08;7.55;;;6.75;;
25073;SDS011;13066;52.042;5.648;2023-12-14T11:59:36;15.52;;;8.10;;
25073;SDS011;13066;52.042;5.648;2023-12-14T12:02:06;9.10;;;7.68;;
25073;SDS011;13066;52.042;5.648;2023-12-14T12:04:34;8.57;;;7.55;;
25073;SDS011;13066;52.042;5.648;2023-12-14T12:07:03;8.55;;;7.63;;
25073;SDS011;13066;52.042;5.648;2023-12-14T12:09:35;9.25;;;7.68;;
25073;SDS011;13066;52.042;5.648;2023-12-14T12:12:08;7.22;;;6.53;;
25073;SDS011;13066;52.042;5.648;2023-12-14T12:14:37;7.18;;;6.47;;
25073;SDS011;13066;52.042;5.648;2023-12-14T12:17:06;6.85;;;6.15;;
25073;SDS011;13066;52.042;5.648;2023-12-14T12:19:35;6.88;;;6.18;;
25073;SDS011;13066;52.042;5.648;2023-12-14T12:22:04;8.75;;;7.28;;
25073;SDS011;13066;52.042;5.648;2023-12-14T12:24:32;7.15;;;6.20;;
25073;SDS011;13066;52.042;5.648;2023-12-14T12:27:00;8.27;;;7.20;;
25073;SDS011;13066;52.042;5.648;2023-12-14T12:29:28;7.15;;;6.45;;
25073;SDS011;13066;52.042;5.648;2023-12-14T12:31:56;7.35;;;6.65;;
25073;SDS011;13066;52.042;5.648;2023-12-14T12:34:26;6.95;;;6.03;;
25073;SDS011;13066;52.042;5.648;2023-12-14T12:36:54;7.75;;;6.95;;
25073;SDS011;13066;52.042;5.648;2023-12-14T12:39:24;7.10;;;6.28;;
25073;SDS011;13066;52.042;5.648;2023-12-14T12:41:52;8.20;;;7.35;;
25073;SDS011;13066;52.042;5.648;2023-12-14T12:44:20;8.32;;;7.05;;
25073;SDS011;13066;52.042;5.648;2023-12-14T12:46:48;7.68;;;6.88;;
25073;SDS011;13066;52.042;5.648;2023-12-14T12:49:31;9.38;;;7.13;;
25073;SDS011;13066;52.042;5.648;2023-12-14T12:51:59;7.95;;;7.10;;
25073;SDS011;13066;52.042;5.648;2023-12-14T12:54:27;9.90;;;8.13;;
25073;SDS011;13066;52.042;5.648;2023-12-14T12:56:55;10.13;;;8.10;;
25073;SDS011;13066;52.042;5.648;2023-12-14T12:59:23;12.45;;;9.13;;
25073;SDS011;13066;52.042;5.648;2023-12-14T13:01:52;8.88;;;7.85;;
25073;SDS011;13066;52.042;5.648;2023-12-14T13:04:21;8.07;;;7.18;;
25073;SDS011;13066;52.042;5.648;2023-12-14T13:06:50;8.43;;;7.40;;
25073;SDS011;13066;52.042;5.648;2023-12-14T13:09:18;9.60;;;8.48;;
25073;SDS011;13066;52.042;5.648;2023-12-14T13:11:47;9.23;;;8.05;;
25073;SDS011;13066;52.042;5.648;2023-12-14T13:14:15;9.75;;;8.75;;
25073;SDS011;13066;52.042;5.648;2023-12-14T13:16:43;11.25;;;9.02;;
25073;SDS011;13066;52.042;5.648;2023-12-14T13:19:12;10.10;;;8.73;;
25073;SDS011;13066;52.042;5.648;2023-12-14T13:21:40;11.85;;;8.45;;
25073;SDS011;13066;52.042;5.648;2023-12-14T13:24:09;9.77;;;8.05;;
25073;SDS011;13066;52.042;5.648;2023-12-14T13:26:37;9.88;;;8.25;;
25073;SDS011;13066;52.042;5.648;2023-12-14T13:29:05;9.35;;;8.32;;
25073;SDS011;13066;52.042;5.648;2023-12-14T13:31:34;10.02;;;8.52;;
25073;SDS011;13066;52.042;5.648;2023-12-14T13:34:02;11.32;;;9.60;;
25073;SDS011;13066;52.042;5.648;2023-12-14T13:36:30;11.15;;;9.48;;
25073;SDS011;13066;52.042;5.648;2023-12-14T13:38:58;12.55;;;9.30;;
25073;SDS011;13066;52.042;5.648;2023-12-14T13:41:29;10.15;;;8.57;;
25073;SDS011;13066;52.042;5.648;2023-12-14T13:44:15;10.23;;;8.88;;
25073;SDS011;13066;52.042;5.648;2023-12-14T13:46:43;11.63;;;9.77;;
25073;SDS011;13066;52.042;5.648;2023-12-14T13:49:11;12.02;;;9.30;;
25073;SDS011;13066;52.042;5.648;2023-12-14T13:51:39;10.23;;;9.23;;
25073;SDS011;13066;52.042;5.648;2023-12-14T13:54:07;11.93;;;8.73;;
25073;SDS011;13066;52.042;5.648;2023-12-14T13:56:37;9.85;;;8.77;;
25073;SDS011;13066;52.042;5.648;2023-12-14T13:59:04;10.27;;;8.50;;
25073;SDS011;13066;52.042;5.648;2023-12-14T14:01:33;9.82;;;8.00;;
25073;SDS011;13066;52.042;5.648;2023-12-14T14:04:01;10.02;;;7.97;;
25073;SDS011;13066;52.042;5.648;2023-12-14T14:06:29;9.65;;;8.65;;
25073;SDS011;13066;52.042;5.648;2023-12-14T14:08:57;9.80;;;8.35;;
25073;SDS011;13066;52.042;5.648;2023-12-14T14:11:26;8.32;;;7.53;;
25073;SDS011;13066;52.042;5.648;2023-12-14T14:13:55;11.23;;;8.93;;
25073;SDS011;13066;52.042;5.648;2023-12-14T14:16:23;12.05;;;8.43;;
25073;SDS011;13066;52.042;5.648;2023-12-14T14:18:51;9.32;;;7.72;;
25073;SDS011;13066;52.042;5.648;2023-12-14T14:21:19;10.15;;;8.35;;
25073;SDS011;13066;52.042;5.648;2023-12-14T14:23:47;9.50;;;8.20;;
25073;SDS011;13066;52.042;5.648;2023-12-14T14:26:15;9.95;;;8.35;;
25073;SDS011;13066;52.042;5.648;2023-12-14T14:28:43;9.80;;;8.13;;
25073;SDS011;13066;52.042;5.648;2023-12-14T14:31:13;8.50;;;7.57;;
25073;SDS011;13066;52.042;5.648;2023-12-14T14:33:41;10.13;;;7.53;;
25073;SDS011;13066;52.042;5.648;2023-12-14T14:36:10;9.93;;;8.45;;
25073;SDS011;13066;52.042;5.648;2023-12-14T14:38:38;8.40;;;7.60;;
25073;SDS011;13066;52.042;5.648;2023-12-14T14:41:06;8.63;;;7.65;;
25073;SDS011;13066;52.042;5.648;2023-12-14T14:43:34;8.90;;;7.82;;
25073;SDS011;13066;52.042;5.648;2023-12-14T14:46:02;8.88;;;7.97;;